Time;durP1;ratioP1;P1;durP2;ratioP2;P2;SDS_P1;SDS_P2;PMS_P1;PMS_P2;Temp;Humidity;BMP_temperature;BMP_pressure;BME280_temperature;BME280_humidity;BME280_pressure;Samples;Min_cycle;Max_cycle;Signal;HPM_P1;HPM_P2
2021/07/17 00:00:14;;;;;;;11.77;7.70;;;15.90;99.90;;;;;;5015202;28;21084;-84
2021/07/17 00:02:41;;;;;;;13.85;8.15;;;15.90;99.90;;;;;;5020968;28;20394;-84
2021/07/17 00:05:12;;;;;;;16.58;7.95;;;15.90;99.90;;;;;;5010357;28;20048;-84
2021/07/17 00:07:40;;;;;;;14.73;7.50;;;15.80;99.90;;;;;;5015052;28;20116;-84
2021/07/17 00:10:12;;;;;;;13.93;7.70;;;15.80;99.90;;;;;;5012120;28;20038;-84
2021/07/17 00:12:39;;;;;;;12.75;7.80;;;15.80;99.90;;;;;;5032647;28;20045;-85
2021/07/17 00:15:06;;;;;;;13.88;8.10;;;15.80;99.90;;;;;;5007170;28;20053;-85
2021/07/17 00:17:33;;;;;;;11.48;7.80;;;15.70;99.90;;;;;;5016284;28;20045;-84
2021/07/17 00:20:00;;;;;;;12.23;7.63;;;15.70;99.90;;;;;;5019454;28;20041;-84
2021/07/17 00:22:27;;;;;;;11.13;7.32;;;15.70;99.90;;;;;;5014467;28;20096;-84
2021/07/17 00:24:54;;;;;;;11.15;7.68;;;15.70;99.90;;;;;;5014511;28;20053;-84
2021/07/17 00:27:21;;;;;;;11.63;7.47;;;15.70;99.90;;;;;;5011790;28;20053;-84
2021/07/17 00:29:48;;;;;;;14.70;7.45;;;15.60;99.90;;;;;;5024538;28;20049;-84
2021/07/17 00:32:15;;;;;;;13.23;7.60;;;15.60;99.90;;;;;;5017587;28;20041;-84
2021/07/17 00:34:42;;;;;;;10.40;7.22;;;15.60;99.90;;;;;;5012868;28;20430;-84
2021/07/17 00:37:09;;;;;;;11.80;7.05;;;15.50;99.90;;;;;;5012018;28;20081;-84
2021/07/17 00:39:36;;;;;;;10.40;6.72;;;15.50;99.90;;;;;;4998114;28;20400;-84
2021/07/17 00:42:03;;;;;;;8.75;7.05;;;15.50;99.90;;;;;;5012471;28;20046;-84
2021/07/17 00:44:30;;;;;;;11.65;7.20;;;15.50;99.90;;;;;;5030307;28;20078;-84
2021/07/17 00:46:58;;;;;;;10.82;6.30;;;15.50;99.90;;;;;;5013855;28;20181;-84
2021/07/17 00:49:29;;;;;;;10.80;6.85;;;15.40;99.90;;;;;;5014546;28;20119;-84
2021/07/17 00:51:56;;;;;;;11.70;6.63;;;15.40;99.90;;;;;;5003153;28;20443;-84
2021/07/17 00:54:25;;;;;;;12.13;6.77;;;15.40;99.90;;;;;;5030125;28;20053;-84
2021/07/17 00:56:54;;;;;;;12.30;6.80;;;15.40;99.90;;;;;;5029337;28;20288;-84
2021/07/17 00:59:27;;;;;;;12.32;7.22;;;15.40;99.90;;;;;;5009920;28;20384;-84
2021/07/17 01:01:56;;;;;;;12.85;6.63;;;15.40;99.90;;;;;;5025184;28;20052;-84
2021/07/17 01:04:25;;;;;;;11.65;6.25;;;15.40;99.90;;;;;;5030876;28;20105;-84
2021/07/17 01:06:52;;;;;;;14.30;7.10;;;15.30;99.90;;;;;;5009149;28;20054;-84
2021/07/17 01:09:19;;;;;;;12.07;6.75;;;15.30;99.90;;;;;;5017675;28;20372;-84
2021/07/17 01:11:46;;;;;;;13.13;6.88;;;15.30;99.90;;;;;;5002488;28;20100;-84
2021/07/17 01:14:13;;;;;;;13.55;6.40;;;15.30;99.90;;;;;;5004487;28;20111;-84
2021/07/17 01:16:41;;;;;;;11.85;7.00;;;15.30;99.90;;;;;;5011083;28;20435;-84
2021/07/17 01:19:10;;;;;;;10.45;6.22;;;15.30;99.90;;;;;;5013670;28;20095;-84
2021/07/17 01:21:38;;;;;;;12.68;7.10;;;15.30;99.90;;;;;;5011867;28;20054;-84
2021/07/17 01:24:05;;;;;;;10.45;6.97;;;15.20;99.90;;;;;;5019371;28;20059;-84
2021/07/17 01:26:32;;;;;;;12.82;7.18;;;15.20;99.90;;;;;;5009877;28;20060;-84
2021/07/17 01:28:59;;;;;;;14.20;7.00;;;15.20;99.90;;;;;;5011194;28;20049;-84
2021/07/17 01:31:28;;;;;;;12.00;6.55;;;15.20;99.90;;;;;;5029722;28;20107;-84
2021/07/17 01:33:55;;;;;;;11.60;6.68;;;15.20;99.90;;;;;;4995849;28;20041;-85
2021/07/17 01:36:22;;;;;;;9.27;6.20;;;15.20;99.90;;;;;;5034089;28;20055;-84
2021/07/17 01:38:49;;;;;;;13.38;6.50;;;15.20;99.90;;;;;;5028437;28;20058;-84
2021/07/17 01:41:17;;;;;;;10.77;6.47;;;15.20;99.90;;;;;;5016457;28;20092;-84
2021/07/17 01:43:44;;;;;;;11.52;6.38;;;15.10;99.90;;;;;;5031645;28;20117;-84
2021/07/17 01:46:11;;;;;;;12.15;7.10;;;15.10;99.90;;;;;;5016839;28;20050;-85
2021/07/17 01:48:38;;;;;;;10.65;6.40;;;15.10;99.90;;;;;;5015814;28;20414;-84
2021/07/17 01:51:05;;;;;;;12.93;6.47;;;15.10;99.90;;;;;;5027708;28;20050;-84
2021/07/17 01:53:32;;;;;;;12.43;7.07;;;15.10;99.90;;;;;;5014073;28;20041;-84
2021/07/17 01:55:59;;;;;;;12.50;5.95;;;15.10;99.90;;;;;;5017143;28;20045;-84
2021/07/17 01:58:26;;;;;;;12.85;6.03;;;15.00;99.90;;;;;;5027728;28;20049;-84
2021/07/17 02:00:53;;;;;;;11.88;6.13;;;15.00;99.90;;;;;;5011879;28;20053;-84
2021/07/17 02:03:20;;;;;;;11.85;6.13;;;15.00;99.90;;;;;;5035156;28;20049;-84
2021/07/17 02:05:47;;;;;;;9.93;6.60;;;15.00;99.90;;;;;;5008107;28;20053;-84
2021/07/17 02:08:14;;;;;;;9.50;6.47;;;14.90;99.90;;;;;;5027196;28;20048;-84
2021/07/17 02:10:41;;;;;;;11.80;6.82;;;15.00;99.90;;;;;;5029237;28;20037;-84
2021/07/17 02:13:09;;;;;;;12.32;6.38;;;14.90;99.90;;;;;;5013365;28;20049;-84
2021/07/17 02:15:44;;;;;;;10.70;6.63;;;14.90;99.90;;;;;;5011010;28;20033;-84
2021/07/17 02:18:13;;;;;;;8.70;5.90;;;14.90;99.90;;;;;;5028475;28;20045;-84
2021/07/17 02:20:41;;;;;;;12.82;7.05;;;14.90;99.90;;;;;;5016317;28;20092;-84
2021/07/17 02:23:09;;;;;;;15.82;6.22;;;14.90;99.90;;;;;;5019821;28;20049;-84
2021/07/17 02:25:36;;;;;;;9.98;6.90;;;14.90;99.90;;;;;;5022250;28;20475;-84
2021/07/17 02:28:05;;;;;;;12.00;6.57;;;14.90;99.90;;;;;;5017385;28;20045;-84
2021/07/17 02:30:32;;;;;;;13.07;7.10;;;14.90;99.90;;;;;;5011840;28;20045;-84
2021/07/17 02:32:59;;;;;;;10.43;6.65;;;14.90;99.90;;;;;;5029996;28;20138;-84
2021/07/17 02:35:26;;;;;;;12.25;6.68;;;14.90;99.90;;;;;;5022387;28;20040;-84
2021/07/17 02:37:53;;;;;;;9.70;6.50;;;14.80;99.90;;;;;;5025616;28;20049;-84
2021/07/17 02:40:20;;;;;;;14.40;6.57;;;14.80;99.90;;;;;;5029634;28;20050;-84
2021/07/17 02:42:47;;;;;;;11.82;7.40;;;14.80;99.90;;;;;;5030845;28;20132;-84
2021/07/17 02:45:14;;;;;;;11.93;8.38;;;14.80;99.90;;;;;;5015151;28;20100;-84
2021/07/17 02:47:41;;;;;;;12.15;7.20;;;14.80;99.90;;;;;;5028678;28;20056;-84
2021/07/17 02:50:09;;;;;;;11.65;6.45;;;14.80;99.90;;;;;;5018650;28;20052;-84
2021/07/17 02:52:36;;;;;;;10.73;6.90;;;14.80;99.90;;;;;;5010755;28;20365;-84
2021/07/17 02:55:04;;;;;;;11.27;6.85;;;14.80;99.90;;;;;;5012015;28;20472;-84
2021/07/17 02:57:32;;;;;;;14.73;7.53;;;14.80;99.90;;;;;;4999561;28;20046;-84
2021/07/17 02:59:59;;;;;;;11.35;6.72;;;14.80;99.90;;;;;;5012623;28;20064;-84
2021/07/17 03:02:27;;;;;;;10.13;6.82;;;14.70;99.90;;;;;;5024319;28;20041;-84
2021/07/17 03:04:54;;;;;;;12.67;6.50;;;14.70;99.90;;;;;;5022653;28;20049;-84
2021/07/17 03:07:21;;;;;;;11.25;6.57;;;14.70;99.90;;;;;;5020602;28;20046;-84
2021/07/17 03:09:48;;;;;;;11.05;6.32;;;14.70;99.90;;;;;;5033606;28;20045;-84
2021/07/17 03:12:15;;;;;;;13.07;6.72;;;14.70;99.90;;;;;;5015549;28;20038;-84
2021/07/17 03:14:42;;;;;;;11.25;7.20;;;14.70;99.90;;;;;;5012270;28;20046;-84
2021/07/17 03:17:11;;;;;;;11.32;8.07;;;14.70;99.90;;;;;;5013813;28;20384;-84
2021/07/17 03:19:39;;;;;;;12.07;8.30;;;14.70;99.90;;;;;;5015408;28;20053;-84
2021/07/17 03:22:07;;;;;;;11.43;8.07;;;14.70;99.90;;;;;;5032947;28;20064;-84
2021/07/17 03:24:34;;;;;;;14.30;8.32;;;14.70;99.90;;;;;;5029451;28;20119;-84
2021/07/17 03:27:01;;;;;;;13.52;8.55;;;14.70;99.90;;;;;;5021506;28;20041;-84
2021/07/17 03:29:27;;;;;;;14.57;8.90;;;14.70;99.90;;;;;;5020686;28;20045;-84
2021/07/17 03:31:54;;;;;;;9.77;8.13;;;14.60;99.90;;;;;;5013667;28;20052;-84
2021/07/17 03:34:22;;;;;;;10.90;8.73;;;14.60;99.90;;;;;;5019565;28;20049;-84
2021/07/17 03:36:49;;;;;;;11.02;8.50;;;14.60;99.90;;;;;;5031720;28;20046;-83
2021/07/17 03:39:16;;;;;;;13.93;9.25;;;14.60;99.90;;;;;;5013382;28;20048;-84
2021/07/17 03:41:43;;;;;;;12.98;8.82;;;14.60;99.90;;;;;;5032266;28;20048;-84
2021/07/17 03:44:11;;;;;;;14.50;8.38;;;14.60;99.90;;;;;;5029805;28;20119;-84
2021/07/17 03:46:38;;;;;;;12.53;9.17;;;14.60;99.90;;;;;;5020603;28;20441;-84
2021/07/17 03:49:05;;;;;;;14.50;8.63;;;14.50;99.90;;;;;;5021538;28;20590;-84
2021/07/17 03:51:32;;;;;;;13.50;8.70;;;14.50;99.90;;;;;;5045556;28;20049;-84
2021/07/17 03:53:59;;;;;;;15.75;9.00;;;14.50;99.90;;;;;;5035414;28;20045;-84
2021/07/17 03:56:26;;;;;;;11.80;8.55;;;14.50;99.90;;;;;;5017378;28;20037;-84
2021/07/17 03:58:56;;;;;;;11.95;8.85;;;14.50;99.90;;;;;;5032440;28;20049;-84
2021/07/17 04:01:22;;;;;;;12.68;8.77;;;14.50;99.90;;;;;;5002056;28;20049;-84
2021/07/17 04:03:51;;;;;;;15.48;9.57;;;14.50;99.90;;;;;;5014461;28;20574;-84
2021/07/17 04:06:18;;;;;;;11.40;8.30;;;14.40;99.90;;;;;;5032385;28;20565;-84
2021/07/17 04:08:45;;;;;;;12.00;8.40;;;14.40;99.90;;;;;;5016033;28;20384;-84
2021/07/17 04:11:12;;;;;;;14.18;8.73;;;14.40;99.90;;;;;;5011715;28;20052;-84
2021/07/17 04:13:39;;;;;;;11.30;7.97;;;14.40;99.90;;;;;;5012092;28;20373;-84
2021/07/17 04:16:06;;;;;;;15.32;8.50;;;14.40;99.90;;;;;;5018063;28;20084;-84
2021/07/17 04:18:33;;;;;;;11.43;8.10;;;14.40;99.90;;;;;;5013429;28;20467;-84
2021/07/17 04:21:00;;;;;;;10.93;7.22;;;14.40;99.90;;;;;;5017061;28;20543;-84
2021/07/17 04:23:27;;;;;;;14.15;7.38;;;14.40;99.90;;;;;;5016858;28;20045;-84
2021/07/17 04:25:54;;;;;;;12.30;7.75;;;14.40;99.90;;;;;;5033160;28;20049;-84
2021/07/17 04:28:22;;;;;;;11.18;6.90;;;14.40;99.90;;;;;;5024009;28;20041;-84
2021/07/17 04:30:49;;;;;;;11.60;7.38;;;14.40;99.90;;;;;;5015870;28;20099;-84
2021/07/17 04:33:16;;;;;;;11.40;6.35;;;14.40;99.90;;;;;;5015012;28;20092;-84
2021/07/17 04:35:43;;;;;;;16.15;7.55;;;14.50;99.90;;;;;;5024252;28;20045;-84
2021/07/17 04:38:10;;;;;;;11.75;6.55;;;14.50;99.90;;;;;;5030706;28;20052;-84
2021/07/17 04:40:37;;;;;;;9.68;6.18;;;14.50;99.90;;;;;;5015512;28;20049;-84
2021/07/17 04:43:05;;;;;;;10.65;5.63;;;14.50;99.90;;;;;;4999415;28;20048;-83
2021/07/17 04:45:32;;;;;;;9.32;6.22;;;14.60;99.90;;;;;;5026413;28;20049;-84
2021/07/17 04:48:03;;;;;;;9.90;6.13;;;14.60;99.90;;;;;;5013787;28;20076;-84
2021/07/17 04:50:32;;;;;;;11.68;5.97;;;14.60;99.90;;;;;;5018875;28;20045;-84
2021/07/17 04:52:59;;;;;;;;;;;14.70;99.90;;;;;;5032879;28;20045;-84
2021/07/17 04:55:27;;;;;;;12.48;5.95;;;14.70;99.90;;;;;;5016852;28;19921;-84
2021/07/17 04:57:54;;;;;;;10.18;6.03;;;14.70;99.90;;;;;;4997784;28;20472;-84
2021/07/17 05:00:21;;;;;;;10.25;6.05;;;14.70;99.90;;;;;;5025550;28;20095;-84
2021/07/17 05:02:49;;;;;;;11.82;6.00;;;14.70;99.90;;;;;;5017611;28;20080;-84
2021/07/17 05:05:18;;;;;;;10.30;6.07;;;14.70;99.90;;;;;;5004266;28;20049;-84
2021/07/17 05:07:49;;;;;;;10.70;5.85;;;14.80;99.90;;;;;;5008364;28;20047;-84
2021/07/17 05:10:18;;;;;;;9.45;6.25;;;14.80;99.90;;;;;;5009290;28;20053;-84
2021/07/17 05:12:46;;;;;;;9.60;5.65;;;14.80;99.90;;;;;;5012048;28;20517;-84
2021/07/17 05:15:14;;;;;;;10.15;5.88;;;14.80;99.90;;;;;;5030547;28;20048;-84
2021/07/17 05:17:42;;;;;;;9.25;6.05;;;14.80;99.90;;;;;;5012269;28;20041;-83
2021/07/17 05:20:10;;;;;;;7.85;5.65;;;14.80;99.90;;;;;;5028769;28;20037;-84
2021/07/17 05:22:38;;;;;;;8.95;5.35;;;14.90;99.90;;;;;;5008911;28;20046;-84
2021/07/17 05:25:06;;;;;;;10.25;5.70;;;14.90;99.90;;;;;;5013437;28;20053;-84
2021/07/17 05:27:34;;;;;;;10.07;5.40;;;14.90;99.90;;;;;;5018949;28;20045;-84
2021/07/17 05:30:02;;;;;;;9.20;5.47;;;15.00;99.90;;;;;;5030943;28;20057;-84
2021/07/17 05:32:29;;;;;;;13.32;5.82;;;15.00;99.90;;;;;;5013232;28;20046;-84
2021/07/17 05:34:56;;;;;;;7.78;5.43;;;15.00;99.90;;;;;;5012097;28;20048;-84
2021/07/17 05:37:25;;;;;;;11.60;5.45;;;15.10;99.90;;;;;;5012219;28;20045;-84
2021/07/17 05:39:52;;;;;;;;;;;15.10;99.90;;;;;;5012653;28;20061;-84
2021/07/17 05:42:19;;;;;;;9.98;4.75;;;15.20;99.90;;;;;;5016657;28;19928;-84
2021/07/17 05:44:47;;;;;;;13.13;4.97;;;15.30;99.90;;;;;;5030143;28;20128;-83
2021/07/17 05:47:14;;;;;;;12.68;5.15;;;15.40;99.90;;;;;;5015720;28;20045;-84
2021/07/17 05:49:41;;;;;;;10.25;5.07;;;15.50;99.90;;;;;;5029506;28;20061;-84
2021/07/17 05:52:08;;;;;;;8.55;4.65;;;15.50;99.90;;;;;;5030695;28;20052;-84
2021/07/17 05:54:35;;;;;;;8.35;4.57;;;15.60;99.90;;;;;;5036285;28;20037;-84
2021/07/17 05:57:02;;;;;;;5.10;4.47;;;15.70;99.90;;;;;;5029340;28;20057;-84
2021/07/17 05:59:29;;;;;;;11.18;5.40;;;15.80;99.90;;;;;;5018137;28;20379;-83
2021/07/17 06:01:56;;;;;;;8.18;4.70;;;15.80;99.90;;;;;;5011533;28;20037;-84
2021/07/17 06:04:24;;;;;;;8.50;4.55;;;15.90;99.90;;;;;;5017659;28;20049;-84
2021/07/17 06:06:51;;;;;;;7.32;4.53;;;16.00;99.90;;;;;;5013241;28;20289;-84
2021/07/17 06:09:18;;;;;;;7.53;4.78;;;16.00;99.90;;;;;;5010779;28;20057;-84
2021/07/17 06:11:45;;;;;;;8.32;3.90;;;16.10;99.90;;;;;;5009403;28;20049;-84
2021/07/17 06:14:12;;;;;;;7.15;4.15;;;16.20;99.90;;;;;;5011207;28;20056;-85
2021/07/17 06:16:39;;;;;;;8.07;3.92;;;16.30;99.90;;;;;;5011021;28;20034;-84
2021/07/17 06:19:07;;;;;;;6.88;3.90;;;16.40;99.90;;;;;;5012606;28;20061;-84
2021/07/17 06:21:33;;;;;;;6.57;3.83;;;16.40;99.90;;;;;;5028826;28;20048;-84
2021/07/17 06:24:00;;;;;;;6.70;3.33;;;16.50;99.90;;;;;;5013124;28;20049;-84
2021/07/17 06:26:27;;;;;;;6.47;3.70;;;16.60;99.90;;;;;;5020252;28;20091;-84
2021/07/17 06:28:54;;;;;;;6.47;3.50;;;16.70;99.90;;;;;;5017286;28;20046;-84
2021/07/17 06:31:21;;;;;;;8.50;3.38;;;16.80;99.90;;;;;;5022498;28;20053;-84
2021/07/17 06:33:48;;;;;;;8.40;3.70;;;16.90;99.90;;;;;;5022212;28;20137;-84
2021/07/17 06:36:17;;;;;;;4.82;3.15;;;17.10;99.90;;;;;;5026799;28;20049;-84
2021/07/17 06:38:44;;;;;;;6.60;3.25;;;17.20;99.90;;;;;;5017166;28;20045;-84
2021/07/17 06:41:15;;;;;;;3.92;3.20;;;17.30;99.90;;;;;;5016150;28;20129;-84
2021/07/17 06:43:42;;;;;;;8.02;3.38;;;17.40;99.90;;;;;;5017776;28;20056;-84
2021/07/17 06:46:09;;;;;;;7.25;3.53;;;17.60;99.90;;;;;;5013432;28;20037;-85
2021/07/17 06:48:36;;;;;;;6.15;2.78;;;17.70;99.90;;;;;;5033565;28;20404;-84
2021/07/17 06:51:03;;;;;;;6.80;2.80;;;17.80;99.90;;;;;;5014223;28;20037;-84
2021/07/17 06:53:34;;;;;;;5.70;2.75;;;17.90;99.90;;;;;;5015982;28;20037;-85
2021/07/17 06:56:01;;;;;;;7.00;2.60;;;18.10;99.90;;;;;;5015635;28;20053;-85
2021/07/17 06:58:28;;;;;;;6.68;2.60;;;18.20;99.90;;;;;;5014183;28;20045;-84
2021/07/17 07:00:57;;;;;;;4.75;2.70;;;18.30;99.90;;;;;;5002867;28;20038;-85
2021/07/17 07:03:24;;;;;;;4.10;2.30;;;18.50;99.90;;;;;;5002395;28;20499;-86
2021/07/17 07:05:52;;;;;;;6.18;2.75;;;18.60;99.90;;;;;;5014116;28;20061;-85
2021/07/17 07:08:20;;;;;;;4.43;2.40;;;18.70;99.90;;;;;;5005567;28;20041;-85
2021/07/17 07:10:47;;;;;;;6.72;2.42;;;18.80;99.90;;;;;;5006450;28;20053;-85
2021/07/17 07:13:15;;;;;;;4.50;2.22;;;19.00;99.90;;;;;;5029863;28;20056;-85
2021/07/17 07:15:43;;;;;;;6.15;2.38;;;19.10;99.90;;;;;;5025104;28;20156;-85
2021/07/17 07:18:12;;;;;;;4.32;2.30;;;19.20;99.90;;;;;;5029361;28;20060;-85
2021/07/17 07:20:39;;;;;;;5.35;2.15;;;19.40;99.90;;;;;;5011863;28;20065;-84
2021/07/17 07:23:06;;;;;;;4.40;2.20;;;19.50;99.90;;;;;;5011236;28;20497;-85
2021/07/17 07:25:34;;;;;;;3.10;2.15;;;19.60;99.90;;;;;;5028673;28;20356;-85
2021/07/17 07:28:01;;;;;;;4.80;2.00;;;19.80;99.90;;;;;;5014753;28;20050;-84
2021/07/17 07:30:28;;;;;;;4.63;2.22;;;20.00;99.90;;;;;;5009430;28;20050;-85
2021/07/17 07:32:56;;;;;;;3.42;2.05;;;20.10;99.90;;;;;;5012597;28;20059;-84
2021/07/17 07:35:25;;;;;;;4.35;2.17;;;20.30;99.90;;;;;;5010083;28;20037;-85
2021/07/17 07:37:53;;;;;;;7.13;2.45;;;20.40;99.90;;;;;;5027984;28;20456;-85
2021/07/17 07:40:22;;;;;;;4.18;2.05;;;20.60;99.90;;;;;;5028154;28;20046;-85
2021/07/17 07:42:49;;;;;;;2.72;1.98;;;20.70;99.90;;;;;;5016782;28;20163;-84
2021/07/17 07:45:17;;;;;;;3.65;1.90;;;20.80;99.90;;;;;;5028123;28;20042;-85
2021/07/17 07:47:44;;;;;;;4.60;2.08;;;20.90;99.90;;;;;;5012876;28;20064;-83
2021/07/17 07:50:11;;;;;;;7.28;1.90;;;21.00;99.90;;;;;;5031016;28;20394;-84
2021/07/17 07:52:38;;;;;;;2.78;1.80;;;21.10;99.90;;;;;;5012540;28;20045;-84
2021/07/17 07:55:06;;;;;;;2.50;1.60;;;21.20;99.90;;;;;;5011249;28;20076;-84
2021/07/17 07:57:33;;;;;;;4.18;2.00;;;21.30;99.90;;;;;;5030087;28;20160;-84
2021/07/17 08:00:00;;;;;;;4.43;1.95;;;21.40;99.90;;;;;;5012579;28;20041;-84
2021/07/17 08:02:27;;;;;;;5.32;2.15;;;21.60;99.90;;;;;;5009083;28;20397;-84
2021/07/17 08:04:55;;;;;;;3.25;1.92;;;21.70;99.90;;;;;;5029871;28;20041;-84
2021/07/17 08:07:22;;;;;;;3.13;1.75;;;21.80;99.90;;;;;;5015816;28;20057;-84
2021/07/17 08:09:51;;;;;;;4.53;2.10;;;21.90;99.90;;;;;;5027384;28;20049;-84
2021/07/17 08:12:18;;;;;;;5.13;2.00;;;22.00;99.90;;;;;;5020925;28;20235;-85
2021/07/17 08:14:45;;;;;;;2.72;1.67;;;22.10;99.90;;;;;;5011333;28;20052;-84
2021/07/17 08:17:12;;;;;;;3.15;1.80;;;22.30;99.90;;;;;;5008547;28;20046;-84
2021/07/17 08:19:39;;;;;;;3.08;1.95;;;22.40;99.90;;;;;;5021689;28;20053;-84
2021/07/17 08:22:06;;;;;;;4.43;1.98;;;22.40;99.90;;;;;;5028572;28;20112;-84
2021/07/17 08:24:33;;;;;;;3.85;1.88;;;22.50;99.90;;;;;;5029343;28;20135;-84
2021/07/17 08:27:00;;;;;;;6.32;1.90;;;22.50;99.90;;;;;;5010923;28;20053;-84
2021/07/17 08:29:27;;;;;;;6.13;2.20;;;22.60;99.90;;;;;;5010059;28;20049;-84
2021/07/17 08:31:54;;;;;;;4.88;1.70;;;22.70;99.90;;;;;;5011533;28;20383;-84
2021/07/17 08:34:22;;;;;;;7.47;1.67;;;22.80;99.90;;;;;;5008394;28;20100;-84
2021/07/17 08:36:49;;;;;;;2.97;1.52;;;22.90;99.90;;;;;;5004017;28;20300;-84
2021/07/17 08:39:16;;;;;;;3.40;1.70;;;23.00;99.90;;;;;;5010888;28;20049;-84
2021/07/17 08:41:48;;;;;;;3.08;1.60;;;23.20;99.90;;;;;;5007569;28;20088;-84
2021/07/17 08:44:18;;;;;;;2.38;1.58;;;23.20;99.90;;;;;;5005000;28;20388;-86
2021/07/17 08:46:52;;;;;;;2.83;1.60;;;23.30;99.90;;;;;;5021674;28;20041;-86
2021/07/17 08:49:21;;;;;;;4.43;1.80;;;23.50;99.90;;;;;;5005574;28;20052;-86
2021/07/17 08:51:48;;;;;;;3.97;1.80;;;23.50;99.90;;;;;;5004566;28;20076;-86
2021/07/17 08:54:16;;;;;;;4.55;2.00;;;23.70;99.90;;;;;;5011639;28;20768;-85
2021/07/17 08:56:44;;;;;;;8.02;2.10;;;23.80;99.90;;;;;;5005814;28;20048;-84
2021/07/17 08:59:11;;;;;;;3.33;1.92;;;23.80;99.60;;;;;;5021722;28;20049;-84
2021/07/17 09:01:39;;;;;;;2.70;1.85;;;23.80;99.20;;;;;;5020341;28;20064;-84
2021/07/17 09:04:08;;;;;;;4.95;1.77;;;23.90;98.90;;;;;;5026186;28;20048;-85
2021/07/17 09:06:36;;;;;;;2.65;1.85;;;24.00;99.00;;;;;;5027978;28;20136;-84
2021/07/17 09:09:05;;;;;;;3.58;1.70;;;24.10;99.00;;;;;;5029228;28;20045;-84
2021/07/17 09:11:40;;;;;;;3.28;1.75;;;24.20;98.90;;;;;;5013517;28;20108;-85
2021/07/17 09:14:08;;;;;;;4.00;1.98;;;24.30;96.90;;;;;;5016692;28;20131;-84
2021/07/17 09:16:38;;;;;;;3.78;1.85;;;24.30;97.40;;;;;;5028794;28;20133;-84
2021/07/17 09:19:06;;;;;;;3.05;1.85;;;24.30;97.30;;;;;;5012838;28;20052;-84
2021/07/17 09:21:38;;;;;;;5.18;1.90;;;24.30;97.20;;;;;;5017039;28;20046;-83
2021/07/17 09:24:08;;;;;;;4.78;1.90;;;24.40;97.10;;;;;;5032099;28;20136;-82
2021/07/17 09:26:38;;;;;;;3.15;1.95;;;24.50;96.80;;;;;;5030030;28;20049;-82
2021/07/17 09:29:10;;;;;;;3.17;1.60;;;24.60;96.50;;;;;;5030010;28;20041;-82
2021/07/17 09:31:38;;;;;;;3.15;1.70;;;24.60;96.40;;;;;;5035377;28;20041;-82
2021/07/17 09:34:10;;;;;;;;;;;24.80;96.10;;;;;;5014341;28;20045;-83
2021/07/17 09:36:59;;;;;;;3.67;1.83;;;24.80;96.00;;;;;;5019553;28;19927;-82
2021/07/17 09:39:34;;;;;;;3.58;1.85;;;24.90;95.90;;;;;;5026537;28;20120;-82
2021/07/17 09:42:05;;;;;;;2.28;1.73;;;25.00;95.10;;;;;;5019964;28;20387;-82
2021/07/17 09:44:34;;;;;;;3.53;1.80;;;25.00;95.00;;;;;;5016488;28;20484;-82
2021/07/17 09:47:03;;;;;;;4.53;1.75;;;25.10;94.90;;;;;;5017192;28;20627;-83
2021/07/17 09:49:30;;;;;;;4.28;1.60;;;25.20;95.00;;;;;;5017988;28;20426;-82
2021/07/17 09:52:12;;;;;;;4.47;1.80;;;25.20;94.40;;;;;;5014949;28;20045;-83
2021/07/17 09:55:01;;;;;;;3.45;1.90;;;25.30;93.50;;;;;;5011450;28;20127;-83
2021/07/17 09:57:32;;;;;;;3.35;2.20;;;25.40;93.70;;;;;;5012981;28;20048;-82
2021/07/17 10:00:09;;;;;;;3.30;1.80;;;25.30;93.80;;;;;;5018755;28;20391;-82
2021/07/17 10:02:55;;;;;;;4.70;2.08;;;25.40;93.20;;;;;;5022292;28;20053;-82
2021/07/17 10:05:37;;;;;;;3.53;1.80;;;25.50;93.40;;;;;;5016550;28;20475;-83
2021/07/17 10:08:14;;;;;;;2.30;1.73;;;25.60;92.50;;;;;;5019362;28;20508;-83
2021/07/17 10:10:44;;;;;;;2.80;1.58;;;25.60;92.10;;;;;;5025403;28;20048;-83
2021/07/17 10:13:11;;;;;;;4.30;2.15;;;25.60;92.10;;;;;;5009762;28;20049;-83
2021/07/17 10:15:38;;;;;;;3.17;1.92;;;25.60;91.90;;;;;;5026480;28;20047;-82
2021/07/17 10:18:23;;;;;;;2.85;1.65;;;25.70;92.00;;;;;;5012017;28;20052;-83
2021/07/17 10:20:55;;;;;;;3.13;1.70;;;25.70;91.90;;;;;;5016410;28;20056;-82
2021/07/17 10:23:23;;;;;;;4.75;2.00;;;25.80;91.60;;;;;;5011487;28;20045;-82
2021/07/17 10:25:50;;;;;;;3.75;2.00;;;25.90;91.30;;;;;;5015395;28;20387;-82
2021/07/17 10:28:17;;;;;;;2.45;1.63;;;26.00;90.90;;;;;;5012050;28;20044;-82
2021/07/17 10:30:45;;;;;;;4.30;1.67;;;26.00;90.70;;;;;;5013818;28;20038;-82
2021/07/17 10:33:12;;;;;;;5.00;1.92;;;26.00;90.50;;;;;;5029414;28;20057;-82
2021/07/17 10:35:39;;;;;;;2.90;1.80;;;26.00;90.60;;;;;;5019779;28;20048;-82
2021/07/17 10:38:09;;;;;;;5.63;1.90;;;26.10;90.70;;;;;;5022149;28;20049;-82
2021/07/17 10:40:39;;;;;;;4.40;1.70;;;26.20;90.50;;;;;;5011430;28;20392;-82
2021/07/17 10:43:08;;;;;;;4.05;1.90;;;26.30;90.70;;;;;;5030067;28;20042;-83
2021/07/17 10:45:39;;;;;;;2.55;1.80;;;26.40;91.00;;;;;;5012825;28;20503;-82
2021/07/17 10:48:27;;;;;;;3.95;1.65;;;26.50;90.90;;;;;;5017692;28;20045;-82
2021/07/17 10:51:00;;;;;;;3.38;1.70;;;26.50;89.20;;;;;;5029692;28;20068;-82
2021/07/17 10:53:45;;;;;;;3.20;1.88;;;26.50;88.70;;;;;;5010555;28;20049;-84
2021/07/17 10:56:27;;;;;;;3.15;1.80;;;26.50;87.80;;;;;;5011798;28;20042;-84
2021/07/17 10:58:56;;;;;;;2.83;2.00;;;26.50;87.50;;;;;;5030536;28;20084;-84
2021/07/17 11:01:25;;;;;;;3.28;1.83;;;26.50;87.40;;;;;;5030108;28;20054;-84
2021/07/17 11:03:53;;;;;;;3.60;2.00;;;26.50;87.40;;;;;;5012536;28;20051;-84
2021/07/17 11:06:32;;;;;;;3.50;2.10;;;26.50;87.50;;;;;;5022345;28;20052;-84
2021/07/17 11:09:30;;;;;;;4.03;2.15;;;26.50;87.70;;;;;;5026693;28;20133;-82
2021/07/17 11:12:20;;;;;;;24.85;2.88;;;26.60;88.10;;;;;;5007090;28;20377;-82
2021/07/17 11:14:48;;;;;;;4.90;2.22;;;26.60;88.20;;;;;;5016843;28;20053;-83
2021/07/17 11:17:40;;;;;;;4.68;2.10;;;26.60;87.40;;;;;;5030708;28;20041;-83
2021/07/17 11:20:17;;;;;;;3.58;2.17;;;26.60;84.90;;;;;;5004019;28;20056;-84
2021/07/17 11:22:46;;;;;;;4.78;2.00;;;26.60;86.40;;;;;;5006768;28;20056;-84
2021/07/17 11:25:17;;;;;;;5.47;2.08;;;26.70;87.00;;;;;;5030940;28;20053;-83
2021/07/17 11:27:44;;;;;;;5.18;1.98;;;26.80;86.90;;;;;;5042114;28;20406;-85
2021/07/17 11:30:15;;;;;;;4.53;2.08;;;26.80;87.10;;;;;;5014976;28;20056;-84
2021/07/17 11:33:04;;;;;;;3.00;2.10;;;26.80;86.80;;;;;;5032937;28;20398;-84
2021/07/17 11:35:31;;;;;;;5.10;2.30;;;26.80;84.90;;;;;;5030900;28;20407;-84
2021/07/17 11:37:59;;;;;;;3.60;2.07;;;26.70;85.90;;;;;;5016436;28;20050;-84
2021/07/17 11:40:27;;;;;;;4.47;2.28;;;26.70;86.70;;;;;;5023173;28;20269;-84
2021/07/17 11:43:05;;;;;;;3.15;1.98;;;26.70;86.70;;;;;;5001115;28;20104;-85
2021/07/17 11:45:32;;;;;;;3.63;2.00;;;26.70;88.10;;;;;;5011328;28;20463;-84
2021/07/17 11:48:10;;;;;;;2.70;1.85;;;26.70;87.10;;;;;;5029356;28;20050;-84
2021/07/17 11:50:38;;;;;;;3.50;1.80;;;26.70;88.70;;;;;;5030169;28;20056;-84
2021/07/17 11:53:15;;;;;;;3.58;2.00;;;26.80;89.20;;;;;;5020110;28;20467;-84
2021/07/17 11:55:43;;;;;;;4.27;2.00;;;26.80;90.00;;;;;;5035211;28;20115;-84
2021/07/17 11:58:17;;;;;;;2.65;2.20;;;26.80;89.90;;;;;;5013104;28;20049;-84
2021/07/17 12:00:44;;;;;;;3.63;2.10;;;26.70;89.10;;;;;;5016093;28;20050;-84
2021/07/17 12:03:16;;;;;;;3.50;2.08;;;26.70;90.00;;;;;;5011861;28;20049;-84
2021/07/17 12:05:43;;;;;;;2.40;2.00;;;26.80;90.00;;;;;;5004140;28;20061;-83
2021/07/17 12:08:11;;;;;;;2.87;1.90;;;27.00;90.20;;;;;;5006420;28;20103;-87
2021/07/17 12:10:38;;;;;;;4.30;2.00;;;27.10;90.10;;;;;;4993609;28;20361;-84
2021/07/17 12:13:05;;;;;;;4.40;2.08;;;27.10;89.80;;;;;;5025197;28;20049;-85
2021/07/17 12:15:37;;;;;;;3.33;2.00;;;27.20;89.00;;;;;;5014720;28;20044;-84
2021/07/17 12:18:06;;;;;;;2.40;1.73;;;27.20;87.90;;;;;;5012757;28;20045;-84
2021/07/17 12:20:44;;;;;;;2.53;1.77;;;27.00;88.10;;;;;;5010525;28;20076;-85
2021/07/17 12:23:17;;;;;;;2.25;1.83;;;27.10;88.70;;;;;;5022083;28;20113;-83
2021/07/17 12:25:58;;;;;;;3.55;1.90;;;27.20;89.00;;;;;;5025452;28;20060;-84
2021/07/17 12:28:26;;;;;;;3.22;1.90;;;27.30;89.30;;;;;;5042398;28;20033;-83
2021/07/17 12:30:56;;;;;;;4.20;1.80;;;27.30;88.50;;;;;;5005079;28;20451;-85
2021/07/17 12:33:26;;;;;;;3.42;1.45;;;27.30;87.20;;;;;;5004233;28;20046;-84
2021/07/17 12:36:01;;;;;;;2.75;1.80;;;27.30;87.40;;;;;;5006605;28;20049;-84
2021/07/17 12:38:30;;;;;;;1.85;1.60;;;27.30;88.40;;;;;;4979120;28;20041;-84
2021/07/17 12:41:22;;;;;;;2.58;1.90;;;27.40;86.80;;;;;;5000185;28;20120;-84
2021/07/17 12:43:53;;;;;;;2.95;1.65;;;27.40;86.60;;;;;;5003416;28;20408;-84
2021/07/17 12:46:25;;;;;;;3.35;1.70;;;27.30;85.80;;;;;;5004377;28;20042;-84
2021/07/17 12:48:57;;;;;;;25.35;3.45;;;27.30;85.30;;;;;;4988728;28;20045;-83
2021/07/17 12:51:32;;;;;;;14.73;2.97;;;27.30;85.10;;;;;;4977112;28;20057;-84